• Join FlightAware (Why Join?)
  • Login
  • US Flag 
Gobble Gobble! 
07:28AM EST


 

Airport Tracker/Info


-or-


 

Live Flight TrackerFlight Track Log ✈ AWI3722 ✈ 17-Apr-2013 ✈ KPWM - KPHL

Flight Track Log - Related Links

Times and Time Zones

All times are in EDT time to prevent confusion due to time zone crossing. See the AWI3722 flight status page for this flight to view local times or setup timezone preferences in your user account.

Time Position Orientation Groundspeed Altitude Reporting Facility
EDT Latitude Longitude Course Direction KTS MPH feet Rate Location/Type
03:49PM 43.6475 -70.4172 269° West 170 196 3,300  Level Boston Center
03:50PM 43.6467 -70.4919 269° West 192 221 6,400 2,280 Climbing Boston Center
03:51PM 43.4754 -70.2471 226° Southwest  Level FlightAware Approximate
03:51PM 43.5850 -70.5397 209° Southwest 219 252 7,900  Level Boston Center
03:52PM 43.4155 -70.3516 226° Southwest  Level FlightAware Approximate
03:52PM 43.5064 -70.5681 195° South 265 305 10,400  Level Boston Center
03:53PM 43.3475 -70.4469 226° Southwest  Level FlightAware Approximate
03:53PM 43.4278 -70.6103 201° Southwest 297 342 12,600  Level Boston Center
03:54PM 43.3472 -70.6528 201° Southwest 310 357 14,400 1,500 Climbing Boston Center
03:55PM 43.2747 -70.6919 201° Southwest 310 357 15,700 1,440 Climbing Boston Center
03:56PM 43.1797 -70.7458 202° Southwest 324 373 17,300 1,260 Climbing Boston Center
03:57PM 43.1094 -70.7847 202° Southwest 337 388 18,200 1,140 Climbing Boston Center
03:58PM 42.9997 -70.8389 200° South 348 400 19,600 1,680 Climbing Boston Center
03:59PM 42.9067 -70.8925 203° Southwest 360 414 21,700 1,500 Climbing Boston Center
04:00PM 42.8136 -70.9428 202° Southwest 360 414 22,600 900 Climbing Boston Center
04:01PM 42.7369 -70.9872 203° Southwest 365 420 23,500 1,020 Climbing Boston Center
04:02PM 42.6297 -71.0686 209° Southwest 372 428 24,700 1,020 Climbing Boston Center
04:03PM 42.5453 -71.1494 215° Southwest 366 421 25,600 1,080 Climbing Boston Center
04:04PM 42.4647 -71.2269 215° Southwest 366 421 26,900 1,200 Climbing Boston Center
04:05PM 42.3842 -71.3044 215° Southwest 366 421 28,000 540 Climbing Boston Center
04:06PM 42.2997 -71.3847 215° Southwest 366 421 28,000  Level Boston Center
04:07PM 42.2108 -71.4675 215° Southwest 381 438 28,000  Level Boston Center
04:08PM 42.1178 -71.5528 214° Southwest 402 463 28,000  Level Boston Center
04:09PM 42.0369 -71.6239 213° Southwest 419 482 28,000  Level Boston Center
04:10PM 41.9231 -71.7314 215° Southwest 424 488 28,000  Level Boston Center
04:11PM 41.8256 -71.8189 214° Southwest 419 482 28,000  Level Boston Center
04:12PM 41.7303 -71.9089 215° Southwest 419 482 28,000  Level Boston Center
04:13PM 41.6431 -71.9872 214° Southwest 419 482 28,000  Level Boston Center
04:14PM 41.5475 -72.0767 215° Southwest 419 482 28,000  Level Boston Center
04:15PM 41.4519 -72.1658 215° Southwest 419 482 28,000  Level Boston Center
04:16PM 41.3519 -72.2547 214° Southwest 419 482 28,000  Level Boston Center
04:17PM 41.2542 -72.3461 215° Southwest 419 482 28,000  Level Boston Center
04:18PM 41.1583 -72.4319 214° Southwest 424 488 28,000  Level Boston Center
04:19PM 41.0394 -72.5392 214° Southwest 424 488 28,000 -840 Level Boston Center
04:20PM 40.9414 -72.6269 214° Southwest 429 494 26,400 -1,560 Descending Boston Center
04:21PM 40.8411 -72.7172 214° Southwest 429 494 24,900 -1,560 Descending Boston Center
04:24PM 40.6300 -72.9042 214° Southwest 402 463 21,300 -1,500 Descending New York Center
04:25PM 40.5475 -72.9781 214° Southwest 378 435 20,000 -720 Descending New York Center
04:25PM 40.4647 -73.0517 214° Southwest 367 422 20,000  Level New York Center
04:27PM 40.3842 -73.1253 215° Southwest 362 417 20,000  Level New York Center
04:28PM 40.2992 -73.1986 213° Southwest 362 417 20,000  Level New York Center
04:28PM 40.2144 -73.2689 212° Southwest 362 417 20,000  Level New York Center
04:29PM 40.1317 -73.3447 215° Southwest 362 417 20,000  Level New York Center
04:31PM 40.0464 -73.4200 214° Southwest 362 417 20,000  Level New York Center
04:31PM 39.9636 -73.4928 214° Southwest 362 417 20,000 -120 Level New York Center
04:32PM 39.8967 -73.5903 228° Southwest 362 417 19,800 -720 Descending New York Center
04:33PM 39.8294 -73.6928 230° Southwest 370 426 18,600 -1,320 Descending New York Center
04:34PM 39.7869 -73.7528 227° Southwest 373 429 17,900 -1,140 Descending Washington Center
04:35PM 39.7156 -73.8569 228° Southwest 373 429 17,000 -1,020 Descending Washington Center
04:36PM 39.6439 -73.9583 227° Southwest 379 436 15,900 -1,020 Descending Washington Center
04:37PM 39.5936 -74.0336 229° Southwest 370 426 15,200 -900 Descending FAA TRACON SMA TRACON (SMA)
04:37PM 39.5731 -74.0633 228° Southwest 365 420 14,900 -1,200 Descending FAA TRACON SMA TRACON (SMA)
04:37PM 39.5475 -74.1000 228° Southwest 361 415 14,400 -1,260 Descending FAA TRACON SMA TRACON (SMA)
04:38PM 39.5294 -74.1300 232° Southwest 349 402 14,100 -600 Descending FAA TRACON SMA TRACON (SMA)
04:38PM 39.5233 -74.1639 257° West 325 374 14,000 -480 Descending FAA TRACON SMA TRACON (SMA)
04:38PM 39.5225 -74.1964 268° West 288 331 13,800 -1,200 Descending FAA TRACON SMA TRACON (SMA)
04:39PM 39.5239 -74.2347 273° West 289 333 13,200 -1,620 Descending FAA TRACON SMA TRACON (SMA)
04:39PM 39.5250 -74.2678 273° West 289 333 12,700 -1,500 Descending FAA TRACON SMA TRACON (SMA)
04:39PM 39.5258 -74.3078 272° West 286 329 12,200 -1,080 Descending FAA TRACON SMA TRACON (SMA)
04:40PM 39.5275 -74.3358 274° West 284 327 12,000 -960 Descending FAA TRACON SMA TRACON (SMA)
04:40PM 39.5264 -74.3703 268° West 284 327 11,600 -1,080 Descending FAA TRACON SMA TRACON (SMA)
04:40PM 39.5275 -74.4008 273° West 280 322 11,300 -1,080 Descending FAA TRACON SMA TRACON (SMA)
04:41PM 39.5292 -74.4386 273° West 280 322 10,900 -900 Descending FAA TRACON SMA TRACON (SMA)
04:41PM 39.5278 -74.4697 267° West 278 320 10,700 -900 Descending FAA TRACON SMA TRACON (SMA)
04:41PM 39.5303 -74.5067 275° West 279 321 10,300 -1,260 Descending FAA TRACON SMA TRACON (SMA)
04:42PM 39.5294 -74.5394 268° West 278 320 9,900 -1,140 Descending FAA TRACON SMA TRACON (SMA)
04:42PM 39.5297 -74.5703 271° West 279 321 9,600 -900 Descending FAA TRACON SMA TRACON (SMA)
04:42PM 39.5303 -74.6008 271° West 277 319 9,300 -840 Descending FAA TRACON SMA TRACON (SMA)
04:43PM 39.5306 -74.6389 271° West 276 318 9,000 -480 Descending FAA TRACON SMA TRACON (SMA)
04:43PM 39.5311 -74.6683 271° West 272 313 9,000  Level FAA TRACON SMA TRACON (SMA)
04:43PM 39.5319 -74.7050 272° West 268 308 9,000  Level FAA TRACON SMA TRACON (SMA)
04:44PM 39.5322 -74.7347 271° West 268 308 9,000 -360 Level FAA TRACON SMA TRACON (SMA)
04:44PM 39.5322 -74.7639 270° West 267 307 8,800 -960 Descending FAA TRACON SMA TRACON (SMA)
04:44PM 39.5339 -74.7986 274° West 265 305 8,400 -1,140 Descending FAA TRACON SMA TRACON (SMA)
04:45PM 39.5342 -74.8297 271° West 264 304 8,100 -600 Descending FAA TRACON SMA TRACON (SMA)
04:45PM 39.5347 -74.8578 271° West 262 302 8,000  Descending FAA TRACON SMA TRACON (SMA)
04:45PM 39.5350 -74.8956 271° West 265 305 8,100 -180 Climbing FAA TRACON SMA TRACON (SMA)
04:46PM 39.5356 -74.9256 271° West 267 307 7,900 -960 Descending FAA TRACON SMA TRACON (SMA)
04:46PM 39.5392 -74.9553 279° West 267 307 7,500 -1,080 Descending FAA TRACON SMA TRACON (SMA)
04:46PM 39.5422 -74.9847 278° West 267 307 7,200 -1,080 Descending FAA TRACON SMA TRACON (SMA)
04:47PM 39.5453 -75.0189 277° West 262 302 6,800 -1,080 Descending FAA TRACON SMA TRACON (SMA)
04:47PM 39.5486 -75.0483 278° West 259 298 6,500 -900 Descending FAA TRACON SMA TRACON (SMA)
04:47PM 39.5517 -75.0758 278° West 253 291 6,200 -780 Descending FAA TRACON SMA TRACON (SMA)
04:48PM 39.5556 -75.1089 279° West 248 285 6,000 -300 Descending FAA TRACON SMA TRACON (SMA)
04:48PM 39.5669 -75.1308 304° West 242 278 6,000 -180 Level FAA TRACON SMA TRACON (SMA)
04:48PM 39.5892 -75.1414 340° North 221 254 5,900 -780 Descending FAA TRACON SMA TRACON (SMA)
04:49PM 39.6064 -75.1483 343° North 214 246 5,500 -1,320 Descending FAA TRACON SMA TRACON (SMA)
04:49PM 39.6408 -75.1619 343° North 213 245 4,600 -1,560 Descending FAA TRACON SMA TRACON (SMA)
04:50PM 39.6625 -75.1714 341° North 210 242 4,000 -1,440 Descending FAA TRACON SMA TRACON (SMA)
04:50PM 39.6794 -75.1667 12° North 197 227 3,700 -900 Descending FAA TRACON SMA TRACON (SMA)
04:50PM 39.6950 -75.1583 22° Northeast 190 219 3,400 -780 Descending FAA TRACON SMA TRACON (SMA)
04:51PM 39.7131 -75.1492 21° North 181 208 3,200 -780 Descending FAA TRACON SMA TRACON (SMA)
04:51PM 39.7264 -75.1547 342° North 164 189 2,900 -780 Descending FAA TRACON SMA TRACON (SMA)
04:51PM 39.7425 -75.1633 338° Northwest 161 185 2,700 -600 Descending FAA TRACON SMA TRACON (SMA)
04:52PM 39.7550 -75.1697 339° North 158 182 2,500 -600 Descending FAA TRACON SMA TRACON (SMA)
04:52PM 39.7678 -75.1761 339° North 159 183 2,300 -780 Descending FAA TRACON SMA TRACON (SMA)
04:52PM 39.7803 -75.1833 336° Northwest 157 181 2,000 -960 Descending FAA TRACON SMA TRACON (SMA)